Allenhurst, Georgia
Current Conditions -  °F | °C
As of 2:58 AM on Wednesday 22 Oct 2014 (Local Time) from KLHW Reporting Station
Clear Clear  
Wind Chill: 56°   Ceiling: Unl
Heat Index: 56°   Visibility: 10mi
Dew Point: 51°   Wind: 6mph
Humidity: 83%   Direction: 330°NNW
Pressure: 29.94"   Gusts: NA
Location:  31.78°N, 81.61°W
Report Text: KLHW 220658Z AUTO 33005KT 10SM CLR 13/10 A2994 RMK AO2 SLP141 T01320103
Loading
Personal Weather Stations






























Interactive Weather Map New forecast layout! Learn more

10-Day Weather Forecast

Advertisements
Track Severe Weather on mobile